createdAt,value
2019-04-13T00:00:47.455Z,3.98
2019-04-13T00:03:19.483Z,3.94
2019-04-13T00:06:05.891Z,3.90
2019-04-13T00:08:38.093Z,3.92
2019-04-13T00:11:24.233Z,3.93
2019-04-13T00:13:55.604Z,3.93
2019-04-13T00:16:27.285Z,3.90
2019-04-13T00:18:58.897Z,3.94
2019-04-13T00:21:30.576Z,4.01
2019-04-13T00:24:02.781Z,4.06
2019-04-13T00:26:34.351Z,4.09
2019-04-13T00:29:06.378Z,4.11
2019-04-13T00:31:37.997Z,3.94
2019-04-13T00:34:09.664Z,3.94
2019-04-13T00:36:41.138Z,4.01
2019-04-13T00:39:12.749Z,4.04
2019-04-13T00:41:44.269Z,4.06
2019-04-13T00:44:15.955Z,4.05
2019-04-13T00:46:47.815Z,3.92
2019-04-13T00:49:19.576Z,4.03
2019-04-13T00:51:55.546Z,3.90
2019-04-13T00:54:27.638Z,3.89
2019-04-13T00:56:59.154Z,3.85
2019-04-13T00:59:30.701Z,3.77
2019-04-13T01:02:03.376Z,3.77
2019-04-13T01:04:34.847Z,3.75
2019-04-13T01:07:06.336Z,3.64
2019-04-13T01:09:38.184Z,3.60
2019-04-13T01:12:09.728Z,3.61
2019-04-13T01:14:41.148Z,3.58
2019-04-13T01:17:12.773Z,3.60
2019-04-13T01:19:44.396Z,3.63
2019-04-13T01:22:16.293Z,3.60
2019-04-13T01:24:48.699Z,3.56
2019-04-13T01:27:20.152Z,3.53
2019-04-13T01:29:52.145Z,3.54
2019-04-13T01:32:23.564Z,3.51
2019-04-13T01:35:05.438Z,3.49
2019-04-13T01:37:28.363Z,3.43
2019-04-13T01:40:00.191Z,3.36
2019-04-13T01:42:32.238Z,3.35
2019-04-13T01:45:04.377Z,3.40
2019-04-13T01:47:36.937Z,3.35
2019-04-13T01:50:08.701Z,3.27
2019-04-13T01:52:40.298Z,3.27
2019-04-13T01:55:13.007Z,3.35
2019-04-13T01:57:44.776Z,3.32
2019-04-13T02:00:18.351Z,3.37
2019-04-13T02:02:51.582Z,3.39
2019-04-13T02:05:38.307Z,3.40
2019-04-13T02:08:31.779Z,3.33
2019-04-13T02:11:16.267Z,3.25
2019-04-13T02:13:47.921Z,3.26
2019-04-13T02:16:19.562Z,3.25
2019-04-13T02:18:51.114Z,3.29
2019-04-13T02:21:22.862Z,3.30
2019-04-13T02:23:54.523Z,3.22
2019-04-13T02:26:26.194Z,3.15
2019-04-13T02:28:57.808Z,3.18
2019-04-13T02:31:29.502Z,3.12
2019-04-13T02:34:01.173Z,3.11
2019-04-13T02:36:32.960Z,3.08
2019-04-13T02:39:05.187Z,3.08
2019-04-13T02:41:37.448Z,3.07
2019-04-13T02:44:09.355Z,3.03
2019-04-13T02:46:41.847Z,3.09
2019-04-13T02:49:13.407Z,3.05
2019-04-13T02:51:45.782Z,3.00
2019-04-13T02:54:17.605Z,3.01
2019-04-13T02:56:49.146Z,3.07
2019-04-13T02:59:20.818Z,3.01
2019-04-13T03:01:52.238Z,2.99
2019-04-13T03:04:24.192Z,2.93
2019-04-13T03:06:55.674Z,3.04
2019-04-13T03:09:27.251Z,3.05
2019-04-13T03:11:59.223Z,2.95
2019-04-13T03:14:30.995Z,2.98
2019-04-13T03:17:20.004Z,2.93
2019-04-13T03:19:55.501Z,2.95
2019-04-13T03:22:27.201Z,2.94
2019-04-13T03:24:58.977Z,2.92
2019-04-13T03:27:30.373Z,2.89
2019-04-13T03:30:01.907Z,2.88
2019-04-13T03:32:33.353Z,2.93
2019-04-13T03:35:05.139Z,2.79
2019-04-13T03:37:36.688Z,2.76
2019-04-13T03:40:08.220Z,2.75
2019-04-13T03:42:40.041Z,2.71
2019-04-13T03:45:11.750Z,2.74
2019-04-13T03:47:43.080Z,2.75
2019-04-13T03:50:15.452Z,2.71
2019-04-13T03:52:47.069Z,2.67
2019-04-13T03:55:18.681Z,2.65
2019-04-13T03:57:50.959Z,2.71
2019-04-13T04:00:22.582Z,2.74
2019-04-13T04:02:54.204Z,2.80
2019-04-13T04:05:25.973Z,2.85
2019-04-13T04:07:57.355Z,2.74
2019-04-13T04:10:28.803Z,2.68
2019-04-13T04:13:00.463Z,2.71
2019-04-13T04:15:32.123Z,2.70
2019-04-13T04:18:03.688Z,2.73
2019-04-13T04:20:35.406Z,2.66
2019-04-13T04:23:06.895Z,2.69
2019-04-13T04:25:38.371Z,2.70
2019-04-13T04:28:09.845Z,2.64
2019-04-13T04:30:41.396Z,2.62
2019-04-13T04:33:12.875Z,2.58
2019-04-13T04:35:44.641Z,2.56
2019-04-13T04:38:16.096Z,2.55
2019-04-13T04:40:47.931Z,2.61
2019-04-13T04:43:19.424Z,2.64
2019-04-13T04:45:51.190Z,2.68
2019-04-13T04:48:22.584Z,2.72
2019-04-13T04:50:54.036Z,2.78
2019-04-13T04:53:25.515Z,2.80
2019-04-13T04:55:56.977Z,2.74
2019-04-13T04:58:28.621Z,2.74
2019-04-13T05:01:00.238Z,2.77
2019-04-13T05:03:31.772Z,2.87
2019-04-13T05:06:03.325Z,3.01
2019-04-13T05:08:35.163Z,3.03
2019-04-13T05:11:06.680Z,3.00
2019-04-13T05:13:38.278Z,3.00
2019-04-13T05:16:10.405Z,3.02
2019-04-13T05:18:42.447Z,3.06
2019-04-13T05:21:14.009Z,3.04
2019-04-13T05:23:45.452Z,3.06
2019-04-13T05:26:17.143Z,3.12
2019-04-13T05:28:48.787Z,3.19
2019-04-13T05:31:20.653Z,3.23
2019-04-13T05:33:53.185Z,3.32
2019-04-13T05:36:25.153Z,3.37
2019-04-13T05:38:56.572Z,3.37
2019-04-13T05:41:28.125Z,3.49
2019-04-13T05:43:59.619Z,3.54
2019-04-13T05:46:31.366Z,3.60
2019-04-13T05:49:03.022Z,3.69
2019-04-13T05:51:34.499Z,3.65
2019-04-13T05:54:06.282Z,3.86
2019-04-13T05:56:37.882Z,4.11
2019-04-13T05:59:09.249Z,4.11
2019-04-13T06:01:41.249Z,4.12
2019-04-13T06:04:12.989Z,4.10
2019-04-13T06:06:44.397Z,4.15
2019-04-13T06:09:15.846Z,4.34
2019-04-13T06:11:47.424Z,4.78
2019-04-13T06:14:18.764Z,5.27
2019-04-13T06:16:50.302Z,5.48
2019-04-13T06:19:21.766Z,5.92
2019-04-13T06:21:53.186Z,5.78
2019-04-13T06:24:24.929Z,6.03
2019-04-13T06:26:56.347Z,6.51
2019-04-13T06:29:27.938Z,6.68
2019-04-13T06:32:17.837Z,7.07
2019-04-13T06:35:07.349Z,6.97
2019-04-13T06:37:39.883Z,7.25
2019-04-13T06:40:11.626Z,7.50
2019-04-13T06:42:43.090Z,7.44
2019-04-13T06:45:14.755Z,7.42
2019-04-13T06:47:46.314Z,7.54
2019-04-13T06:50:18.189Z,7.59
2019-04-13T06:52:49.647Z,7.93
2019-04-13T06:55:21.002Z,7.63
2019-04-13T06:57:52.659Z,7.69
2019-04-13T07:00:24.310Z,8.10
2019-04-13T07:02:55.767Z,8.39
2019-04-13T07:05:28.342Z,8.28
2019-04-13T07:08:07.606Z,8.32
2019-04-13T07:11:01.339Z,8.35
2019-04-13T07:13:36.830Z,8.77
2019-04-13T07:16:21.829Z,8.82
2019-04-13T07:18:53.270Z,8.31
2019-04-13T07:21:25.495Z,8.36
2019-04-13T07:23:58.175Z,8.56
2019-04-13T07:26:31.449Z,8.69
2019-04-13T07:29:02.812Z,9.28
2019-04-13T07:31:34.687Z,9.46
2019-04-13T07:34:06.365Z,9.69
2019-04-13T07:36:41.458Z,10.08
2019-04-13T07:39:11.007Z,10.19
2019-04-13T07:41:42.578Z,10.31
2019-04-13T07:44:19.807Z,10.72
2019-04-13T07:46:57.887Z,10.68
2019-04-13T07:49:48.375Z,10.06
2019-04-13T07:52:28.772Z,9.67
2019-04-13T07:54:59.069Z,9.80
2019-04-13T07:57:30.677Z,9.92
2019-04-13T08:00:02.135Z,9.34
2019-04-13T08:02:33.693Z,9.31
2019-04-13T08:05:05.970Z,9.39
2019-04-13T08:07:49.037Z,9.86
2019-04-13T08:10:11.647Z,10.14
2019-04-13T08:12:43.652Z,10.59
2019-04-13T08:15:15.629Z,10.56
2019-04-13T08:17:47.355Z,10.31
2019-04-13T08:20:43.842Z,10.23
2019-04-13T08:23:15.409Z,10.04
2019-04-13T08:25:46.995Z,10.32
2019-04-13T08:28:18.776Z,11.01
2019-04-13T08:30:50.503Z,11.53
2019-04-13T08:33:22.058Z,11.67
2019-04-13T08:35:54.001Z,12.23
2019-04-13T08:38:26.237Z,12.61
2019-04-13T08:41:10.950Z,13.11
2019-04-13T08:43:33.202Z,13.03
2019-04-13T08:46:04.904Z,12.90
2019-04-13T08:48:36.402Z,13.55
2019-04-13T08:51:08.053Z,13.82
2019-04-13T08:53:39.465Z,13.57
2019-04-13T08:56:11.234Z,12.98
2019-04-13T08:58:42.796Z,13.18
2019-04-13T09:01:15.761Z,13.20
2019-04-13T09:03:47.541Z,13.20
2019-04-13T09:06:18.963Z,13.39
2019-04-13T09:08:50.425Z,13.44
2019-04-13T09:11:22.543Z,13.86
2019-04-13T09:13:54.271Z,14.53
2019-04-13T09:16:28.770Z,14.41
2019-04-13T09:19:40.834Z,14.22
2019-04-13T09:22:14.914Z,14.25
2019-04-13T09:24:48.724Z,15.11
2019-04-13T09:27:20.028Z,14.84
2019-04-13T09:29:51.257Z,13.96
2019-04-13T09:32:22.527Z,14.69
2019-04-13T09:34:53.727Z,15.20
2019-04-13T09:37:24.948Z,14.50
2019-04-13T09:39:56.303Z,15.10
2019-04-13T09:42:27.544Z,16.05
2019-04-13T09:45:03.484Z,16.49
2019-04-13T09:47:31.890Z,15.69
2019-04-13T09:50:03.606Z,15.31
2019-04-13T09:52:35.359Z,15.16
2019-04-13T09:55:09.927Z,15.35
2019-04-13T09:57:42.068Z,15.22
2019-04-13T10:00:14.334Z,15.19
2019-04-13T10:02:46.357Z,15.58
2019-04-13T10:05:17.907Z,16.07
2019-04-13T10:07:49.804Z,16.06
2019-04-13T10:10:21.326Z,16.28
2019-04-13T10:13:08.438Z,16.59
2019-04-13T10:16:05.133Z,17.08
2019-04-13T10:18:44.303Z,16.59
2019-04-13T10:21:16.293Z,16.34
2019-04-13T10:23:48.498Z,16.60
2019-04-13T10:26:20.224Z,17.35
2019-04-13T10:28:51.835Z,16.80
2019-04-13T10:31:26.732Z,15.89
2019-04-13T10:33:57.055Z,16.60
2019-04-13T10:36:28.593Z,16.89
2019-04-13T10:39:08.250Z,17.21
2019-04-13T10:41:37.082Z,16.71
2019-04-13T10:44:08.833Z,17.31
2019-04-13T10:47:11.745Z,17.74
2019-04-13T10:49:48.427Z,16.71
2019-04-13T10:52:21.950Z,17.51
2019-04-13T10:54:53.770Z,17.61
2019-04-13T10:57:26.439Z,16.03
2019-04-13T10:59:58.502Z,15.45
2019-04-13T11:02:30.513Z,15.83
2019-04-13T11:05:02.064Z,16.65
2019-04-13T11:07:34.872Z,17.36
2019-04-13T11:10:07.034Z,18.03
2019-04-13T11:12:39.397Z,17.87
2019-04-13T11:15:11.362Z,17.01
2019-04-13T11:17:45.017Z,15.52
2019-04-13T11:20:17.023Z,14.54
2019-04-13T11:22:48.943Z,14.11
2019-04-13T11:25:21.755Z,14.74
2019-04-13T11:27:53.479Z,15.77
2019-04-13T11:30:25.052Z,15.34
2019-04-13T11:32:56.606Z,14.33
2019-04-13T11:35:28.065Z,13.22
2019-04-13T11:37:59.639Z,12.79
2019-04-13T11:40:30.948Z,11.80
2019-04-13T11:43:20.724Z,11.29
2019-04-13T11:46:00.442Z,11.44
2019-04-13T11:48:49.518Z,11.16
2019-04-13T11:51:23.923Z,11.39
2019-04-13T11:53:55.436Z,11.43
2019-04-13T11:56:28.906Z,11.82
2019-04-13T11:59:00.091Z,12.23
2019-04-13T12:01:56.121Z,12.64
2019-04-13T12:04:43.854Z,12.23
2019-04-13T12:07:23.993Z,12.58
2019-04-13T12:10:12.601Z,13.68
2019-04-13T12:13:08.899Z,13.17
2019-04-13T12:15:58.253Z,13.01
2019-04-13T12:19:03.786Z,12.97
2019-04-13T12:21:52.964Z,13.48
2019-04-13T12:24:26.328Z,13.97
2019-04-13T12:26:57.638Z,13.06
2019-04-13T12:29:29.762Z,12.74
2019-04-13T12:32:01.286Z,11.91
2019-04-13T12:34:32.667Z,12.09
2019-04-13T12:37:04.448Z,12.11
2019-04-13T12:39:39.354Z,12.23
2019-04-13T12:42:08.763Z,12.67
2019-04-13T12:44:39.940Z,12.87
2019-04-13T12:47:15.785Z,13.62
2019-04-13T12:49:46.949Z,15.61
2019-04-13T12:52:18.210Z,16.43
2019-04-13T12:54:49.761Z,16.78
2019-04-13T12:57:21.046Z,17.25
2019-04-13T12:59:52.647Z,16.09
2019-04-13T13:02:39.693Z,16.59
2019-04-13T13:05:14.532Z,17.47
2019-04-13T13:07:45.951Z,17.37
2019-04-13T13:10:17.349Z,17.20
2019-04-13T13:12:48.740Z,17.83
2019-04-13T13:15:20.430Z,17.95
2019-04-13T13:17:54.447Z,17.67
2019-04-13T13:20:25.310Z,17.05
2019-04-13T13:22:56.471Z,18.13
2019-04-13T13:25:27.648Z,18.25
2019-04-13T13:27:58.777Z,17.38
2019-04-13T13:30:29.990Z,17.27
2019-04-13T13:33:01.334Z,17.64
2019-04-13T13:35:32.971Z,15.34
2019-04-13T13:38:05.352Z,15.16
2019-04-13T13:40:36.571Z,14.90
2019-04-13T13:43:07.777Z,16.89
2019-04-13T13:45:40.145Z,17.54
2019-04-13T13:48:11.488Z,15.96
2019-04-13T13:50:42.740Z,14.40
2019-04-13T13:53:14.157Z,13.40
2019-04-13T13:55:47.317Z,12.95
2019-04-13T13:58:35.567Z,13.21
2019-04-13T14:01:28.677Z,13.37
2019-04-13T14:04:00.257Z,12.98
2019-04-13T14:06:31.477Z,13.32
2019-04-13T14:09:02.888Z,13.86
2019-04-13T14:11:36.952Z,14.97
2019-04-13T14:14:09.271Z,15.27
2019-04-13T14:16:42.306Z,15.50
2019-04-13T14:19:13.763Z,16.31
2019-04-13T14:21:45.073Z,16.69
2019-04-13T14:24:17.483Z,16.80
2019-04-13T14:26:52.346Z,15.35
2019-04-13T14:29:24.211Z,15.01
2019-04-13T14:31:55.596Z,14.86
2019-04-13T14:34:26.754Z,14.26
2019-04-13T14:36:58.000Z,14.22
2019-04-13T14:39:29.334Z,13.89
2019-04-13T14:42:00.604Z,12.94
2019-04-13T14:44:31.968Z,12.99
2019-04-13T14:47:03.683Z,13.22
2019-04-13T14:49:35.525Z,14.35
2019-04-13T14:52:06.867Z,14.39
2019-04-13T14:54:38.216Z,15.03
2019-04-13T14:57:09.474Z,14.79
2019-04-13T14:59:40.821Z,13.76
2019-04-13T15:02:12.448Z,12.94
2019-04-13T15:04:43.606Z,12.28
2019-04-13T15:07:14.822Z,11.92
2019-04-13T15:09:45.979Z,11.95
2019-04-13T15:12:18.199Z,13.28
2019-04-13T15:14:49.634Z,13.38
2019-04-13T15:17:22.195Z,13.11
2019-04-13T15:20:03.899Z,13.02
2019-04-13T15:22:27.256Z,13.16
2019-04-13T15:25:02.370Z,13.20
2019-04-13T15:27:31.762Z,13.51
2019-04-13T15:30:06.963Z,13.18
2019-04-13T15:32:36.925Z,13.21
2019-04-13T15:35:12.878Z,13.52
2019-04-13T15:37:45.516Z,12.97
2019-04-13T15:40:17.828Z,13.01
2019-04-13T15:42:55.336Z,13.14
2019-04-13T15:45:20.672Z,13.35
2019-04-13T15:47:53.182Z,13.21
2019-04-13T15:50:24.541Z,13.34
2019-04-13T15:52:59.604Z,13.24
2019-04-13T15:55:31.599Z,12.86
2019-04-13T15:58:04.308Z,11.80
2019-04-13T16:00:36.119Z,12.16
2019-04-13T16:03:07.643Z,12.54
2019-04-13T16:05:39.931Z,12.48
2019-04-13T16:08:11.450Z,12.30
2019-04-13T16:10:49.180Z,12.30
2019-04-13T16:13:23.684Z,11.84
2019-04-13T16:16:02.888Z,11.09
2019-04-13T16:18:34.919Z,10.46
2019-04-13T16:21:08.525Z,10.39
2019-04-13T16:23:39.780Z,10.50
2019-04-13T16:26:11.159Z,10.69
2019-04-13T16:28:52.672Z,10.81
2019-04-13T16:31:33.412Z,10.70
2019-04-13T16:34:25.780Z,10.82
2019-04-13T16:37:04.918Z,10.61
2019-04-13T16:39:36.922Z,10.39
2019-04-13T16:42:15.904Z,9.76
2019-04-13T16:45:00.429Z,9.38
2019-04-13T16:47:52.012Z,9.01
2019-04-13T16:50:41.113Z,8.77
2019-04-13T16:53:22.059Z,8.77
2019-04-13T16:55:57.955Z,8.75
2019-04-13T16:58:42.124Z,8.73
2019-04-13T17:01:32.328Z,8.64
2019-04-13T17:04:21.647Z,8.60
2019-04-13T17:06:54.647Z,8.41
2019-04-13T17:09:27.739Z,8.32
2019-04-13T17:12:15.034Z,8.30
2019-04-13T17:14:37.165Z,8.18
2019-04-13T17:17:09.273Z,8.11
2019-04-13T17:20:05.808Z,8.07
2019-04-13T17:22:59.965Z,7.91
2019-04-13T17:25:39.630Z,7.82
2019-04-13T17:28:20.542Z,7.77
2019-04-13T17:31:22.400Z,7.67
2019-04-13T17:34:09.220Z,7.54
2019-04-13T17:36:42.088Z,7.45
2019-04-13T17:39:13.476Z,7.42
2019-04-13T17:42:01.344Z,7.41
2019-04-13T17:44:35.493Z,7.25
2019-04-13T17:47:24.510Z,7.12
2019-04-13T17:50:22.297Z,6.99
2019-04-13T17:53:11.649Z,6.84
2019-04-13T17:56:01.281Z,6.83
2019-04-13T17:59:00.617Z,6.77
2019-04-13T18:04:53.714Z,6.64
2019-04-13T18:07:43.870Z,6.61
2019-04-13T18:10:38.051Z,6.74
2019-04-13T18:13:47.961Z,6.77
2019-04-13T18:16:25.720Z,6.86
2019-04-13T18:19:05.171Z,6.83
2019-04-13T18:21:36.397Z,6.77
2019-04-13T18:24:07.597Z,6.76
2019-04-13T18:26:38.746Z,6.67
2019-04-13T18:29:09.941Z,6.63
2019-04-13T18:31:42.247Z,6.48
2019-04-13T18:34:13.607Z,6.40
2019-04-13T18:36:46.398Z,6.31
2019-04-13T18:39:18.961Z,6.25
2019-04-13T18:41:50.555Z,6.13
2019-04-13T18:44:21.833Z,6.05
2019-04-13T18:46:53.234Z,5.95
2019-04-13T18:49:24.364Z,5.95
2019-04-13T18:51:56.659Z,5.90
2019-04-13T18:54:28.061Z,5.82
2019-04-13T18:57:00.334Z,5.79
2019-04-13T18:59:31.598Z,5.68
2019-04-13T19:02:03.662Z,5.62
2019-04-13T19:04:35.030Z,5.56
2019-04-13T19:07:06.537Z,5.53
2019-04-13T19:09:37.667Z,5.49
2019-04-13T19:12:09.617Z,5.47
2019-04-13T19:14:40.822Z,5.52
2019-04-13T19:17:12.187Z,5.49
2019-04-13T19:19:43.324Z,5.42
2019-04-13T19:22:14.469Z,5.36
2019-04-13T19:24:45.676Z,5.32
2019-04-13T19:27:16.837Z,5.18
2019-04-13T19:29:48.291Z,5.15
2019-04-13T19:32:19.893Z,5.03
2019-04-13T19:34:51.096Z,4.95
2019-04-13T19:37:22.223Z,5.07
2019-04-13T19:39:53.406Z,5.12
2019-04-13T19:42:24.795Z,5.18
2019-04-13T19:44:55.992Z,5.16
2019-04-13T19:47:27.141Z,5.20
2019-04-13T19:49:58.451Z,5.18
2019-04-13T19:52:48.570Z,5.13
2019-04-13T19:55:19.875Z,5.24
2019-04-13T19:57:51.260Z,5.25
2019-04-13T20:00:30.129Z,5.23
2019-04-13T20:03:01.349Z,5.17
2019-04-13T20:05:34.663Z,5.21
2019-04-13T20:08:05.554Z,5.16
2019-04-13T20:10:36.785Z,5.18
2019-04-13T20:13:08.550Z,5.10
2019-04-13T20:15:40.008Z,5.06
2019-04-13T20:18:11.181Z,4.99
2019-04-13T20:20:42.330Z,4.90
2019-04-13T20:23:13.570Z,4.88
2019-04-13T20:25:46.157Z,4.83
2019-04-13T20:28:17.946Z,4.75
2019-04-13T20:30:49.941Z,4.71
2019-04-13T20:33:22.077Z,4.74
2019-04-13T20:36:01.293Z,4.72
2019-04-13T20:38:26.532Z,4.60
2019-04-13T20:41:17.319Z,4.60
2019-04-13T20:44:34.562Z,4.63
2019-04-13T20:47:06.925Z,4.57
2019-04-13T20:49:38.312Z,4.55
2019-04-13T20:52:09.787Z,4.55
2019-04-13T20:54:41.271Z,4.62
2019-04-13T20:57:13.018Z,4.68
2019-04-13T20:59:46.039Z,4.72
2019-04-13T21:02:17.678Z,4.81
2019-04-13T21:04:50.146Z,4.83
2019-04-13T21:07:22.680Z,4.92
2019-04-13T21:09:54.033Z,4.84
2019-04-13T21:12:25.222Z,4.85
2019-04-13T21:14:56.776Z,4.95
2019-04-13T21:17:29.004Z,5.01
2019-04-13T21:20:03.653Z,5.02
2019-04-13T21:22:35.677Z,5.00
2019-04-13T21:25:07.702Z,5.00
2019-04-13T21:27:39.947Z,5.00
2019-04-13T21:30:12.136Z,5.06
2019-04-13T21:32:44.356Z,5.03
2019-04-13T21:35:16.478Z,5.03
2019-04-13T21:37:48.728Z,4.99
2019-04-13T21:40:20.834Z,5.09
2019-04-13T21:42:53.447Z,5.10
2019-04-13T21:45:25.374Z,5.04
2019-04-13T21:47:58.012Z,5.06
2019-04-13T21:50:35.335Z,5.03
2019-04-13T21:53:15.987Z,5.14
2019-04-13T21:55:48.339Z,5.08
2019-04-13T21:58:20.750Z,5.13
2019-04-13T22:01:25.724Z,5.12
2019-04-13T22:03:57.950Z,5.00
2019-04-13T22:06:29.894Z,5.01
2019-04-13T22:09:02.151Z,5.05
2019-04-13T22:11:36.442Z,5.12
2019-04-13T22:14:09.549Z,5.20
2019-04-13T22:16:41.429Z,5.11
2019-04-13T22:19:13.566Z,5.12
2019-04-13T22:21:45.808Z,5.14
2019-04-13T22:24:18.073Z,5.19
2019-04-13T22:26:50.073Z,5.26
2019-04-13T22:29:39.759Z,5.19
2019-04-13T22:32:31.721Z,5.21
2019-04-13T22:35:25.986Z,5.19
2019-04-13T22:37:58.085Z,5.20
2019-04-13T22:40:30.069Z,5.15
2019-04-13T22:43:02.447Z,5.10
2019-04-13T22:45:34.109Z,5.16
2019-04-13T22:48:12.048Z,5.18
2019-04-13T22:51:03.280Z,5.21
2019-04-13T22:54:05.835Z,5.26
2019-04-13T22:56:42.222Z,5.19
2019-04-13T22:59:13.978Z,5.15
2019-04-13T23:01:51.568Z,5.14
2019-04-13T23:04:23.357Z,5.05
2019-04-13T23:06:55.334Z,5.09
2019-04-13T23:09:26.624Z,5.15
2019-04-13T23:11:58.528Z,5.04
2019-04-13T23:14:30.870Z,4.99
2019-04-13T23:17:03.030Z,5.01
2019-04-13T23:19:34.950Z,5.10
2019-04-13T23:22:06.477Z,5.12
2019-04-13T23:24:38.513Z,5.06
2019-04-13T23:27:09.751Z,5.13
2019-04-13T23:29:41.187Z,5.04
2019-04-13T23:32:13.677Z,4.97
2019-04-13T23:34:46.552Z,5.00
2019-04-13T23:37:19.008Z,5.05
2019-04-13T23:39:51.938Z,4.95
2019-04-13T23:42:24.326Z,4.96
2019-04-13T23:45:09.696Z,4.97
2019-04-13T23:47:30.327Z,4.95
2019-04-13T23:50:03.502Z,4.91
2019-04-13T23:52:34.902Z,4.89
2019-04-13T23:55:07.713Z,4.92
2019-04-13T23:57:48.614Z,4.89
